Time;durP1;ratioP1;P1;durP2;ratioP2;P2;SDS_P1;SDS_P2;PMS_P1;PMS_P2;Temp;Humidity;BMP_temperature;BMP_pressure;BME280_temperature;BME280_humidity;BME280_pressure;Samples;Min_cycle;Max_cycle;Signal;HPM_P1;HPM_P2
2021/04/14 00:02:01;;;;;;;9.57;6.75;;;3.70;80.50;;;;;;5093856;28;20280;-85
2021/04/14 00:04:51;;;;;;;7.50;6.43;;;3.70;80.50;;;;;;5097155;28;20696;-86
2021/04/14 00:07:30;;;;;;;6.50;5.95;;;3.70;80.40;;;;;;5082938;28;20209;-86
2021/04/14 00:09:59;;;;;;;8.50;7.20;;;3.70;80.50;;;;;;5079233;28;20200;-86
2021/04/14 00:12:40;;;;;;;8.23;6.80;;;3.70;80.30;;;;;;5080671;28;20551;-87
2021/04/14 00:15:15;;;;;;;11.77;6.80;;;3.60;79.80;;;;;;5098293;28;20185;-86
2021/04/14 00:17:44;;;;;;;7.95;6.45;;;3.70;79.90;;;;;;5089639;28;20203;-87
2021/04/14 00:20:30;;;;;;;6.85;6.05;;;3.70;79.70;;;;;;5077504;28;20237;-86
2021/04/14 00:23:07;;;;;;;10.07;7.50;;;3.60;79.60;;;;;;5056124;28;20676;-86
2021/04/14 00:25:38;;;;;;;7.75;6.93;;;3.50;79.60;;;;;;5062177;28;20259;-86
2021/04/14 00:28:17;;;;;;;9.33;6.20;;;3.50;80.30;;;;;;5097168;28;20224;-86
2021/04/14 00:30:54;;;;;;;9.25;7.30;;;3.40;80.70;;;;;;5088350;28;20482;-86
2021/04/14 00:33:21;;;;;;;12.07;8.40;;;3.40;80.70;;;;;;5077624;28;20239;-87
2021/04/14 00:35:51;;;;;;;13.57;8.33;;;3.40;80.80;;;;;;5085554;28;20207;-86
2021/04/14 00:38:36;;;;;;;11.77;7.75;;;3.40;81.20;;;;;;5097999;28;20498;-85
2021/04/14 00:41:12;;;;;;;12.20;8.87;;;3.40;81.20;;;;;;5057531;28;20263;-87
2021/04/14 00:44:01;;;;;;;13.05;9.18;;;3.30;81.30;;;;;;5059445;28;20506;-87
2021/04/14 00:46:30;;;;;;;14.32;8.88;;;3.30;81.30;;;;;;5075983;28;20242;-86
2021/04/14 00:51:50;;;;;;;12.10;8.18;;;3.10;84.10;;;;;;5074362;28;20478;-87
2021/04/14 00:54:25;;;;;;;11.63;8.05;;;3.20;84.20;;;;;;5074629;28;20200;-88
2021/04/14 00:57:03;;;;;;;13.20;9.20;;;3.20;84.10;;;;;;5074948;28;21004;-87
2021/04/14 00:59:29;;;;;;;11.45;9.50;;;3.10;84.40;;;;;;5074834;28;20189;-87
2021/04/14 01:02:02;;;;;;;12.50;9.00;;;3.00;85.10;;;;;;5074416;28;20226;-87
2021/04/14 01:04:32;;;;;;;10.82;9.68;;;2.90;85.80;;;;;;5074121;28;20202;-87
2021/04/14 01:07:02;;;;;;;15.20;9.30;;;2.80;87.00;;;;;;5074943;28;20712;-87
2021/04/14 01:09:29;;;;;;;13.32;9.30;;;2.90;88.10;;;;;;5075093;28;20215;-87
2021/04/14 01:11:57;;;;;;;14.18;11.48;;;2.90;88.50;;;;;;5075056;28;20222;-87
2021/04/14 01:14:23;;;;;;;11.60;9.95;;;2.90;88.50;;;;;;5074629;28;20196;-87
2021/04/14 01:16:49;;;;;;;12.65;10.73;;;2.90;88.30;;;;;;5074143;28;20239;-87
2021/04/14 01:19:15;;;;;;;12.25;11.00;;;2.90;88.70;;;;;;5079029;28;20565;-87
2021/04/14 01:21:43;;;;;;;15.90;12.60;;;2.90;88.70;;;;;;5082679;28;20651;-88
2021/04/14 01:24:11;;;;;;;11.68;9.95;;;2.90;88.90;;;;;;5075039;28;20198;-86
2021/04/14 01:26:37;;;;;;;18.33;12.70;;;2.80;89.50;;;;;;5074745;28;20198;-87
2021/04/14 01:29:05;;;;;;;24.98;11.93;;;2.90;90.00;;;;;;5074420;28;20714;-87
2021/04/14 01:31:34;;;;;;;13.50;10.88;;;2.80;90.10;;;;;;5074854;28;20245;-86
2021/04/14 01:34:02;;;;;;;13.98;10.77;;;2.80;90.10;;;;;;5074302;28;20207;-86
2021/04/14 01:36:29;;;;;;;12.23;10.20;;;2.70;90.10;;;;;;5081406;28;20190;-87
2021/04/14 01:38:56;;;;;;;10.95;9.85;;;2.70;90.30;;;;;;5083259;28;20195;-86
2021/04/14 01:46:32;;;;;;;14.05;10.30;;;2.70;90.80;;;;;;5074869;28;20202;-86
2021/04/14 01:56:32;;;;;;;12.05;10.20;;;2.40;92.10;;;;;;4999485;28;20386;-86
2021/04/14 02:09:06;;;;;;;10.82;9.20;;;2.40;93.10;;;;;;4941591;29;20313;-86
2021/04/14 02:11:32;;;;;;;14.00;10.10;;;2.40;93.10;;;;;;5021202;28;20214;-86
2021/04/14 02:13:58;;;;;;;11.32;9.90;;;2.30;93.40;;;;;;5105216;28;20197;-86
2021/04/14 02:16:25;;;;;;;10.60;9.57;;;2.20;93.70;;;;;;5100568;28;20227;-86
2021/04/14 02:18:53;;;;;;;11.02;9.85;;;2.20;93.80;;;;;;5083868;28;20237;-86
2021/04/14 02:21:22;;;;;;;18.30;11.55;;;2.20;93.80;;;;;;5077862;28;20205;-86
2021/04/14 02:23:50;;;;;;;15.50;10.30;;;2.20;93.60;;;;;;5095312;28;20239;-86
2021/04/14 02:26:21;;;;;;;12.80;9.90;;;2.30;93.90;;;;;;5092418;28;20340;-85
2021/04/14 02:28:51;;;;;;;12.35;10.77;;;2.30;93.70;;;;;;5074455;28;20229;-87
2021/04/14 02:31:29;;;;;;;13.68;10.80;;;2.30;93.60;;;;;;5077448;28;20648;-86
2021/04/14 02:33:56;;;;;;;10.68;9.60;;;2.40;93.50;;;;;;5094219;28;20572;-85
2021/04/14 02:36:22;;;;;;;10.35;9.27;;;2.30;93.50;;;;;;5090321;28;20188;-86
2021/04/14 02:38:48;;;;;;;11.40;10.25;;;2.20;93.70;;;;;;5074237;28;20346;-85
2021/04/14 02:41:15;;;;;;;12.50;10.27;;;2.20;93.80;;;;;;5083522;28;20193;-86
2021/04/14 02:43:42;;;;;;;12.82;9.90;;;2.10;93.70;;;;;;5096874;28;20209;-86
2021/04/14 02:46:08;;;;;;;11.07;9.90;;;2.00;94.10;;;;;;5077600;28;20574;-86
2021/04/14 02:48:35;;;;;;;14.95;11.02;;;2.00;94.70;;;;;;5073517;28;20285;-86
2021/04/14 02:51:01;;;;;;;10.73;9.30;;;2.00;95.20;;;;;;5089497;28;20627;-86
2021/04/14 02:53:28;;;;;;;12.93;9.18;;;2.00;95.30;;;;;;5095127;28;20673;-86
2021/04/14 02:55:54;;;;;;;16.20;11.23;;;2.00;95.30;;;;;;5082111;28;20259;-85
2021/04/14 02:58:21;;;;;;;13.43;12.13;;;1.90;95.50;;;;;;5078120;28;20198;-86
2021/04/14 03:00:50;;;;;;;11.35;9.50;;;1.80;95.70;;;;;;5091435;28;20221;-86
2021/04/14 03:16:33;;;;;;;14.35;10.82;;;1.80;95.50;;;;;;4985068;28;20199;-86
2021/04/14 03:19:00;;;;;;;11.80;10.65;;;1.80;95.50;;;;;;5021220;28;20199;-86
2021/04/14 03:21:26;;;;;;;11.07;9.98;;;1.70;95.40;;;;;;5100123;28;20228;-86
2021/04/14 03:23:52;;;;;;;10.23;9.18;;;1.70;95.50;;;;;;5100346;28;20232;-86
2021/04/14 03:26:19;;;;;;;12.45;10.80;;;1.70;95.60;;;;;;5082552;28;20199;-86
2021/04/14 03:28:45;;;;;;;11.23;9.75;;;1.60;95.60;;;;;;5096093;28;20225;-86
2021/04/14 03:31:11;;;;;;;11.32;8.90;;;1.60;95.60;;;;;;5099250;28;20198;-86
2021/04/14 03:33:38;;;;;;;9.85;8.30;;;1.60;95.90;;;;;;5097926;28;20209;-86
2021/04/14 03:36:05;;;;;;;10.50;8.75;;;1.60;95.90;;;;;;5080721;28;20198;-86
2021/04/14 03:38:31;;;;;;;11.75;9.07;;;1.60;95.70;;;;;;5077785;28;20194;-86
2021/04/14 03:40:58;;;;;;;10.80;9.70;;;1.70;95.70;;;;;;5096544;28;20226;-86
2021/04/14 03:43:24;;;;;;;12.38;9.23;;;1.60;95.60;;;;;;5096887;28;20222;-86
2021/04/14 03:45:55;;;;;;;14.50;9.32;;;1.60;95.80;;;;;;5090896;28;20621;-86
2021/04/14 03:48:21;;;;;;;13.32;10.45;;;1.50;96.10;;;;;;5085621;28;20833;-86
2021/04/14 03:50:48;;;;;;;13.00;10.00;;;1.60;96.40;;;;;;5086791;28;20201;-86
2021/04/14 03:53:23;;;;;;;14.98;11.32;;;1.50;96.40;;;;;;5079818;28;20228;-86
2021/04/14 03:55:54;;;;;;;13.00;10.13;;;1.50;96.50;;;;;;5082363;28;20205;-86
2021/04/14 03:58:20;;;;;;;15.27;11.60;;;1.50;96.60;;;;;;5097608;28;20192;-86
2021/04/14 04:00:46;;;;;;;14.88;11.68;;;1.40;96.90;;;;;;5100285;28;20201;-87
2021/04/14 04:03:12;;;;;;;13.93;11.40;;;1.40;97.20;;;;;;5088000;28;20260;-86
2021/04/14 04:05:39;;;;;;;15.52;11.15;;;1.40;97.50;;;;;;5078439;28;20212;-85
2021/04/14 04:08:06;;;;;;;15.00;12.27;;;1.40;97.80;;;;;;5088848;28;20353;-86
2021/04/14 04:10:32;;;;;;;15.00;12.15;;;1.40;97.90;;;;;;5099255;28;20205;-86
2021/04/14 04:12:58;;;;;;;18.08;12.05;;;1.40;97.90;;;;;;5086273;28;20217;-87
2021/04/14 04:15:25;;;;;;;13.25;10.93;;;1.40;97.90;;;;;;5095163;28;20202;-86
2021/04/14 04:17:52;;;;;;;15.23;11.90;;;1.40;97.80;;;;;;5094787;28;20209;-87
2021/04/14 04:20:19;;;;;;;16.27;14.48;;;1.40;97.90;;;;;;5080227;28;20210;-86
2021/04/14 04:22:46;;;;;;;14.57;11.35;;;1.40;98.10;;;;;;5075647;28;20221;-87
2021/04/14 04:25:15;;;;;;;16.50;12.60;;;1.40;98.20;;;;;;5082083;28;20201;-87
2021/04/14 04:27:42;;;;;;;14.50;12.48;;;1.40;98.30;;;;;;5080580;28;20190;-87
2021/04/14 04:30:10;;;;;;;13.48;11.45;;;1.40;98.60;;;;;;5075305;28;20736;-86
2021/04/14 04:32:37;;;;;;;15.07;12.00;;;1.40;98.40;;;;;;5075279;28;20597;-86
2021/04/14 04:35:06;;;;;;;19.88;13.05;;;1.40;98.80;;;;;;5075467;28;20197;-87
2021/04/14 04:37:33;;;;;;;18.50;11.73;;;1.40;98.50;;;;;;5094387;28;20205;-87
2021/04/14 04:40:00;;;;;;;15.13;11.70;;;1.30;98.60;;;;;;5095389;28;20230;-87
2021/04/14 04:42:28;;;;;;;14.75;11.55;;;1.30;98.80;;;;;;5094756;28;20216;-87
2021/04/14 04:44:55;;;;;;;14.70;12.07;;;1.30;98.80;;;;;;5095781;28;20220;-86
2021/04/14 04:47:22;;;;;;;15.43;11.10;;;1.30;98.80;;;;;;5108458;28;20196;-86
2021/04/14 04:49:49;;;;;;;16.45;11.90;;;1.30;98.90;;;;;;5110968;28;20220;-87
2021/04/14 04:52:16;;;;;;;13.77;11.95;;;1.30;99.10;;;;;;5097151;28;20229;-86
2021/04/14 04:54:43;;;;;;;18.42;12.68;;;1.40;99.00;;;;;;5096451;28;20229;-86
2021/04/14 04:57:10;;;;;;;20.83;13.77;;;1.40;98.80;;;;;;5101539;28;20200;-86
2021/04/14 04:59:38;;;;;;;16.98;12.13;;;1.40;98.70;;;;;;5094037;28;20193;-87
2021/04/14 05:12:44;;;;;;;18.13;11.20;;;2.00;98.60;;;;;;5047089;28;20206;-87
2021/04/14 05:15:12;;;;;;;17.75;12.30;;;2.50;97.60;;;;;;5084740;28;20193;-86
2021/04/14 05:17:38;;;;;;;20.60;12.43;;;2.90;96.20;;;;;;5094988;28;20218;-87
2021/04/14 05:20:23;;;;;;;16.52;13.25;;;3.30;94.90;;;;;;5095263;28;20199;-86
2021/04/14 05:22:49;;;;;;;18.67;12.27;;;3.50;93.40;;;;;;5096360;28;20222;-87
2021/04/14 05:25:18;;;;;;;17.85;10.80;;;3.50;92.30;;;;;;5082642;28;20196;-86
2021/04/14 05:27:45;;;;;;;14.63;10.97;;;3.50;91.80;;;;;;5078674;28;20191;-87
2021/04/14 05:30:28;;;;;;;16.40;11.32;;;3.20;91.80;;;;;;5076896;28;20480;-87
2021/04/14 05:32:57;;;;;;;17.70;12.00;;;3.10;91.80;;;;;;5084369;28;20240;-87
2021/04/14 05:38:24;;;;;;;18.42;11.07;;;3.10;91.70;;;;;;5086284;28;20225;-87
2021/04/14 05:40:54;;;;;;;13.18;11.02;;;3.10;91.80;;;;;;5074706;28;20205;-86
2021/04/14 05:43:39;;;;;;;17.95;11.73;;;3.10;91.90;;;;;;5086475;28;20212;-86
2021/04/14 05:46:27;;;;;;;19.25;10.73;;;3.00;91.90;;;;;;5079478;28;20245;-87
2021/04/14 05:48:53;;;;;;;14.00;11.55;;;2.90;92.10;;;;;;5073671;28;20690;-86
2021/04/14 06:25:36;;;;;;;13.57;11.57;;;6.00;85.80;;;;;;4967871;28;20534;-86
2021/04/14 06:28:05;;;;;;;14.30;10.70;;;6.90;79.40;;;;;;5057300;28;20480;-87
2021/04/14 06:39:37;;;;;;;17.50;11.20;;;6.70;73.10;;;;;;5055895;28;20427;-87
2021/04/14 06:42:40;;;;;;;15.50;11.57;;;6.60;73.60;;;;;;5062966;28;20519;-87
2021/04/14 06:45:34;;;;;;;12.13;10.37;;;6.40;74.20;;;;;;5066205;28;20482;-86
2021/04/14 06:48:25;;;;;;;13.00;10.67;;;6.30;74.20;;;;;;5069453;28;20454;-87
2021/04/14 06:50:58;;;;;;;13.07;11.70;;;6.30;74.80;;;;;;5098987;28;20451;-87
2021/04/14 06:53:37;;;;;;;12.77;11.03;;;6.40;74.90;;;;;;5086643;28;20467;-86
2021/04/14 06:56:07;;;;;;;14.57;10.80;;;6.60;74.60;;;;;;5078460;28;20539;-86
2021/04/14 06:58:41;;;;;;;21.53;12.57;;;6.70;74.20;;;;;;5065652;28;21042;-88
2021/04/14 07:01:13;;;;;;;12.47;11.00;;;6.90;73.80;;;;;;5068067;28;20466;-87
2021/04/14 07:07:22;;;;;;;9.77;8.50;;;7.00;72.40;;;;;;5033696;28;20432;-86
2021/04/14 07:12:39;;;;;;;8.10;7.13;;;7.50;69.80;;;;;;5035454;28;20484;-88
2021/04/14 07:18:46;;;;;;;10.70;9.43;;;8.00;69.00;;;;;;5057933;28;20452;-86
2021/04/14 07:21:36;;;;;;;13.40;8.70;;;8.70;67.70;;;;;;5064652;28;20444;-86
2021/04/14 07:24:42;;;;;;;12.00;9.20;;;10.10;61.90;;;;;;5063309;28;20482;-87
2021/04/14 07:27:33;;;;;;;9.93;8.83;;;11.20;59.40;;;;;;5060518;28;20805;-86
2021/04/14 07:30:19;;;;;;;8.63;7.90;;;12.70;56.10;;;;;;5078169;28;20472;-86
2021/04/14 07:38:58;;;;;;;7.63;6.80;;;16.10;48.40;;;;;;5022187;28;20447;-87
2021/04/14 07:41:37;;;;;;;8.67;7.23;;;16.60;46.40;;;;;;5062415;28;20474;-85
2021/04/14 07:44:11;;;;;;;7.70;7.00;;;17.10;45.00;;;;;;5068326;28;20451;-84
2021/04/14 07:46:41;;;;;;;7.50;6.90;;;17.30;44.30;;;;;;5065523;28;20448;-85
2021/04/14 07:49:11;;;;;;;7.53;6.60;;;17.20;43.00;;;;;;5075686;28;20563;-84
2021/04/14 07:51:38;;;;;;;9.13;7.67;;;17.20;42.90;;;;;;5064574;28;20471;-85
2021/04/14 07:54:08;;;;;;;7.83;7.13;;;17.10;43.00;;;;;;5075040;28;20456;-85
2021/04/14 07:56:43;;;;;;;7.83;6.70;;;17.40;42.40;;;;;;5072844;28;20457;-86
2021/04/14 07:59:12;;;;;;;9.27;6.63;;;17.50;42.00;;;;;;5061664;28;20444;-83
2021/04/14 08:01:50;;;;;;;7.13;6.17;;;17.30;41.90;;;;;;5068629;28;20475;-89
2021/04/14 08:04:21;;;;;;;6.83;5.80;;;16.60;42.00;;;;;;5083606;28;20443;-85
2021/04/14 08:06:47;;;;;;;7.33;5.70;;;15.60;42.60;;;;;;5087491;28;20475;-83
2021/04/14 08:09:17;;;;;;;5.70;4.83;;;15.60;43.70;;;;;;5085671;28;20501;-85
2021/04/14 08:11:44;;;;;;;5.90;4.27;;;16.10;43.50;;;;;;5078038;28;20472;-84
2021/04/14 08:14:14;;;;;;;4.80;4.27;;;17.00;42.10;;;;;;5073604;28;20509;-85
2021/04/14 08:16:44;;;;;;;4.47;3.63;;;17.50;40.40;;;;;;5081067;28;20451;-85
2021/04/14 08:19:20;;;;;;;5.37;4.27;;;17.20;39.80;;;;;;5085903;28;20439;-84
2021/04/14 08:21:56;;;;;;;5.53;4.30;;;18.40;40.20;;;;;;5082026;28;20472;-86
2021/04/14 08:24:29;;;;;;;8.40;4.70;;;19.00;38.80;;;;;;5069818;28;20432;-84
2021/04/14 08:26:59;;;;;;;5.70;4.57;;;19.60;38.40;;;;;;5072313;28;20457;-83
2021/04/14 08:29:25;;;;;;;7.17;5.10;;;20.00;37.30;;;;;;5067952;28;20487;-84
2021/04/14 08:31:52;;;;;;;5.57;4.40;;;20.30;36.70;;;;;;5077546;28;20499;-84
2021/04/14 08:34:22;;;;;;;10.10;4.97;;;21.00;36.10;;;;;;5084405;28;20865;-85
2021/04/14 08:36:55;;;;;;;5.50;4.03;;;21.80;35.50;;;;;;5086956;28;20460;-85
2021/04/14 08:39:25;;;;;;;6.13;4.20;;;22.30;34.50;;;;;;5083353;28;20450;-85
2021/04/14 08:41:52;;;;;;;5.27;4.63;;;23.10;34.10;;;;;;5084267;28;20517;-83
2021/04/14 08:44:32;;;;;;;6.30;4.23;;;23.20;32.80;;;;;;5064106;28;20456;-85
2021/04/14 08:47:12;;;;;;;6.77;5.47;;;23.00;32.50;;;;;;5062632;28;20482;-84
2021/04/14 08:49:39;;;;;;;5.13;4.20;;;22.60;32.40;;;;;;5078415;28;20998;-84
2021/04/14 08:52:08;;;;;;;8.33;4.83;;;20.60;33.70;;;;;;5080899;28;20479;-84
2021/04/14 08:54:36;;;;;;;6.33;5.20;;;18.10;37.50;;;;;;5066055;28;20502;-83
2021/04/14 08:57:03;;;;;;;6.43;4.73;;;18.80;38.00;;;;;;5076225;28;20464;-83
2021/04/14 08:59:30;;;;;;;5.10;4.13;;;20.30;36.60;;;;;;5086771;28;20438;-84
2021/04/14 09:01:56;;;;;;;5.10;4.40;;;21.30;35.70;;;;;;5069946;28;20509;-83
2021/04/14 09:04:24;;;;;;;5.73;4.37;;;22.30;34.60;;;;;;5065971;28;20520;-84
2021/04/14 09:06:52;;;;;;;4.40;3.63;;;22.80;32.80;;;;;;5062869;28;20435;-85
2021/04/14 09:09:21;;;;;;;5.83;3.80;;;22.50;33.10;;;;;;5063260;28;20553;-83
2021/04/14 09:11:58;;;;;;;7.40;3.80;;;21.60;32.60;;;;;;5065444;28;20478;-86
2021/04/14 09:14:28;;;;;;;7.00;5.90;;;21.30;33.60;;;;;;5063901;28;20452;-85
2021/04/14 09:16:58;;;;;;;6.63;3.83;;;21.80;34.40;;;;;;5063721;28;20960;-84
2021/04/14 09:19:29;;;;;;;3.90;3.30;;;23.00;32.80;;;;;;5063685;28;20448;-85
2021/04/14 09:21:58;;;;;;;4.33;3.37;;;23.30;32.00;;;;;;5062477;28;20486;-85
2021/04/14 09:24:47;;;;;;;5.40;3.70;;;24.30;31.60;;;;;;5073934;28;20421;-84
2021/04/14 09:27:33;;;;;;;4.37;3.97;;;24.40;30.00;;;;;;5089816;28;20462;-84
2021/04/14 09:30:09;;;;;;;5.43;3.67;;;25.30;29.90;;;;;;5069498;28;20480;-85
2021/04/14 09:32:51;;;;;;;5.10;4.63;;;25.20;29.40;;;;;;5065695;28;20894;-84
2021/04/14 09:35:22;;;;;;;6.43;4.17;;;23.90;29.70;;;;;;5085670;28;20444;-84
2021/04/14 09:37:51;;;;;;;4.97;3.57;;;24.80;30.10;;;;;;5083434;28;20555;-85
2021/04/14 09:40:29;;;;;;;4.77;4.00;;;26.00;28.70;;;;;;5064067;28;20457;-84
2021/04/14 09:42:55;;;;;;;5.20;4.33;;;25.10;28.40;;;;;;5043100;28;20461;-85
2021/04/14 09:45:35;;;;;;;6.90;4.10;;;23.00;29.40;;;;;;5040934;28;20437;-84
2021/04/14 09:48:15;;;;;;;4.30;3.63;;;22.60;31.20;;;;;;5074195;28;20451;-84
2021/04/14 09:50:45;;;;;;;4.63;3.83;;;23.90;31.20;;;;;;5082691;28;20492;-85
2021/04/14 09:53:28;;;;;;;3.67;3.37;;;25.30;30.00;;;;;;5065348;28;20497;-85
2021/04/14 09:55:58;;;;;;;4.60;4.20;;;26.40;27.30;;;;;;5068354;28;20449;-84
2021/04/14 09:58:30;;;;;;;3.77;3.47;;;24.60;27.60;;;;;;5084774;28;20444;-85
2021/04/14 10:01:04;;;;;;;5.43;3.60;;;23.10;29.00;;;;;;5081461;28;20440;-84
2021/04/14 10:03:34;;;;;;;4.23;3.80;;;24.60;29.60;;;;;;5086169;28;20467;-85
2021/04/14 10:06:07;;;;;;;7.93;3.77;;;23.70;28.60;;;;;;5071472;28;20456;-85
2021/04/14 10:08:36;;;;;;;3.90;3.50;;;21.70;29.70;;;;;;5068355;28;20962;-85
2021/04/14 10:11:05;;;;;;;5.70;4.20;;;19.00;32.10;;;;;;5084781;28;20627;-84
2021/04/14 10:13:33;;;;;;;5.00;4.20;;;17.30;35.20;;;;;;5093347;28;20439;-85
2021/04/14 10:16:04;;;;;;;5.50;4.70;;;16.30;37.10;;;;;;5092345;28;20462;-83
2021/04/14 10:18:37;;;;;;;7.67;4.93;;;15.00;39.50;;;;;;5069706;28;20443;-85
2021/04/14 10:21:20;;;;;;;7.10;4.70;;;14.20;41.30;;;;;;5079308;28;20454;-85
2021/04/14 10:24:01;;;;;;;5.00;4.57;;;13.80;42.60;;;;;;5086228;28;20482;-85
2021/04/14 10:26:34;;;;;;;7.47;4.10;;;13.60;43.60;;;;;;5087124;28;20455;-84
2021/04/14 10:29:05;;;;;;;7.27;3.03;;;13.20;44.20;;;;;;5084225;28;20491;-84
2021/04/14 10:31:35;;;;;;;2.93;2.70;;;12.80;45.00;;;;;;5061918;28;20511;-84
2021/04/14 10:34:10;;;;;;;4.80;3.10;;;11.70;46.50;;;;;;5081390;28;20440;-84
2021/04/14 10:36:39;;;;;;;3.10;2.80;;;11.10;48.00;;;;;;5084086;28;20513;-84
2021/04/14 10:39:15;;;;;;;3.47;3.17;;;10.80;49.60;;;;;;5075424;28;20568;-84
2021/04/14 10:41:42;;;;;;;4.10;3.00;;;10.80;49.90;;;;;;5089380;28;20753;-84
2021/04/14 10:44:17;;;;;;;3.47;3.17;;;10.90;50.00;;;;;;5081175;28;20456;-85
2021/04/14 10:46:44;;;;;;;2.87;2.63;;;10.80;49.90;;;;;;5069939;28;20466;-84
2021/04/14 10:49:16;;;;;;;5.17;4.77;;;11.30;49.10;;;;;;5073074;28;20474;-84
2021/04/14 10:51:46;;;;;;;4.93;3.13;;;12.60;46.30;;;;;;5085621;28;20463;-85
2021/04/14 10:54:14;;;;;;;3.30;2.60;;;13.80;43.60;;;;;;5079450;28;20483;-83
2021/04/14 10:56:41;;;;;;;3.03;2.60;;;14.40;40.70;;;;;;5065890;28;20973;-84
2021/04/14 10:59:10;;;;;;;3.00;2.70;;;14.90;39.70;;;;;;5072631;28;20435;-84
2021/04/14 11:01:40;;;;;;;2.73;2.53;;;16.30;39.00;;;;;;5084923;28;20453;-85
2021/04/14 11:04:21;;;;;;;3.20;2.43;;;17.90;36.80;;;;;;5073064;28;20441;-84
2021/04/14 11:06:49;;;;;;;3.37;2.50;;;17.40;34.90;;;;;;5061426;28;20470;-85
2021/04/14 11:09:18;;;;;;;3.90;3.53;;;16.40;34.90;;;;;;5069489;28;20524;-84
2021/04/14 11:11:46;;;;;;;3.10;2.80;;;15.90;36.40;;;;;;5080438;28;20504;-86
2021/04/14 11:14:15;;;;;;;6.20;2.50;;;14.60;37.10;;;;;;5084491;28;20454;-84
2021/04/14 11:16:44;;;;;;;2.63;2.37;;;14.40;38.10;;;;;;5086167;28;20452;-83
2021/04/14 11:19:13;;;;;;;5.10;2.43;;;14.50;36.80;;;;;;5074959;28;20444;-85
2021/04/14 11:21:40;;;;;;;3.50;2.10;;;13.80;37.20;;;;;;5063649;28;20468;-86
2021/04/14 11:24:10;;;;;;;3.33;2.50;;;14.30;37.60;;;;;;5062173;28;20980;-86
2021/04/14 11:26:39;;;;;;;2.70;2.50;;;15.10;36.30;;;;;;5062375;28;20445;-84
2021/04/14 11:29:07;;;;;;;2.63;2.20;;;15.20;35.00;;;;;;5073936;28;20472;-84
2021/04/14 11:31:36;;;;;;;2.90;2.70;;;14.90;35.30;;;;;;5083537;28;20468;-83
2021/04/14 11:34:16;;;;;;;3.33;2.60;;;15.00;35.00;;;;;;5086591;28;20436;-84
2021/04/14 11:36:55;;;;;;;4.60;2.50;;;14.90;35.00;;;;;;5083066;28;20544;-84
2021/04/14 11:39:21;;;;;;;3.33;2.50;;;14.40;35.70;;;;;;5064783;28;20459;-85
2021/04/14 11:41:50;;;;;;;4.70;3.60;;;13.90;36.80;;;;;;5063959;28;20475;-83
2021/04/14 11:44:37;;;;;;;4.77;3.00;;;13.20;38.00;;;;;;5062612;28;20449;-84
2021/04/14 11:47:06;;;;;;;3.30;2.57;;;12.80;38.90;;;;;;5072134;28;20488;-84
2021/04/14 11:49:36;;;;;;;4.80;4.30;;;13.10;39.60;;;;;;5064206;28;20484;-84
2021/04/14 11:52:20;;;;;;;4.60;3.03;;;13.50;39.60;;;;;;5061210;28;21046;-85
2021/04/14 11:54:49;;;;;;;3.97;3.00;;;13.80;38.90;;;;;;5061769;28;20428;-85
2021/04/14 11:57:24;;;;;;;5.37;3.27;;;14.00;38.20;;;;;;5071972;28;20444;-85
2021/04/14 12:00:10;;;;;;;5.17;3.17;;;14.20;38.10;;;;;;5083258;28;20433;-84
2021/04/14 12:02:39;;;;;;;3.83;3.20;;;14.10;38.10;;;;;;5099601;28;20462;-84
2021/04/14 12:05:47;;;;;;;4.93;2.73;;;13.60;38.60;;;;;;5088494;28;20447;-84
2021/04/14 12:08:21;;;;;;;3.20;2.90;;;12.90;39.90;;;;;;5067299;28;20472;-84
2021/04/14 12:10:47;;;;;;;3.33;2.50;;;13.30;40.40;;;;;;5070878;28;20485;-84
2021/04/14 12:13:14;;;;;;;3.13;2.50;;;13.80;39.60;;;;;;5073884;28;20470;-84
2021/04/14 12:15:40;;;;;;;3.07;2.77;;;14.10;38.60;;;;;;5095849;22;20529;-82
2021/04/14 12:18:07;;;;;;;4.33;3.23;;;13.30;39.30;;;;;;5096023;28;20431;-83
2021/04/14 12:20:33;;;;;;;3.20;3.00;;;12.80;41.10;;;;;;5096209;28;20447;-83
2021/04/14 12:23:00;;;;;;;6.20;3.67;;;13.00;41.00;;;;;;5096413;28;20448;-83
2021/04/14 12:25:27;;;;;;;5.00;3.30;;;13.60;41.50;;;;;;5098066;28;20494;-83
2021/04/14 12:27:54;;;;;;;4.23;3.40;;;13.40;43.00;;;;;;5105070;28;20851;-84
2021/04/14 12:30:23;;;;;;;4.33;2.80;;;13.30;44.20;;;;;;5100015;28;20482;-84
2021/04/14 12:32:49;;;;;;;3.23;2.93;;;13.00;44.70;;;;;;5093485;28;20810;-84
2021/04/14 12:35:16;;;;;;;3.67;2.47;;;13.00;45.30;;;;;;5074835;28;20994;-84
2021/04/14 12:37:43;;;;;;;3.87;3.50;;;12.90;45.60;;;;;;5075505;28;20439;-84
2021/04/14 12:40:10;;;;;;;4.27;3.10;;;13.00;45.50;;;;;;5076404;28;20489;-84
2021/04/14 12:42:37;;;;;;;4.57;2.80;;;13.20;45.00;;;;;;5076099;28;20945;-84
2021/04/14 12:45:14;;;;;;;3.87;3.00;;;13.50;44.80;;;;;;5097857;28;20781;-84
2021/04/14 12:47:40;;;;;;;6.63;3.47;;;13.80;44.20;;;;;;5101055;28;20446;-84
2021/04/14 12:50:07;;;;;;;4.00;2.77;;;14.40;43.30;;;;;;5095181;28;20483;-84
2021/04/14 12:52:38;;;;;;;6.07;3.63;;;14.20;43.20;;;;;;5095522;28;20450;-84
2021/04/14 12:55:12;;;;;;;6.30;2.93;;;14.30;43.80;;;;;;5090262;28;20473;-85
2021/04/14 12:57:41;;;;;;;3.43;3.13;;;14.50;44.10;;;;;;5074705;28;20956;-84
2021/04/14 13:00:11;;;;;;;5.20;3.10;;;14.40;44.20;;;;;;5074756;28;20848;-84
2021/04/14 13:02:40;;;;;;;7.33;3.43;;;14.20;45.00;;;;;;5077134;28;20488;-84
2021/04/14 13:05:14;;;;;;;5.20;3.60;;;13.90;45.70;;;;;;5075186;28;20913;-84
2021/04/14 13:07:47;;;;;;;4.43;3.20;;;13.70;46.20;;;;;;5076107;28;20452;-84
2021/04/14 13:10:14;;;;;;;3.27;2.97;;;13.60;46.20;;;;;;5089821;28;20485;-84
2021/04/14 13:12:41;;;;;;;4.33;3.40;;;13.60;46.40;;;;;;5096424;28;20449;-84
2021/04/14 13:15:09;;;;;;;4.53;3.53;;;13.60;46.70;;;;;;5094920;28;20473;-84
2021/04/14 13:17:42;;;;;;;4.47;2.93;;;13.70;47.40;;;;;;5095443;28;20447;-84
2021/04/14 13:20:09;;;;;;;3.60;3.40;;;13.50;47.50;;;;;;5096232;28;20449;-84
2021/04/14 13:22:39;;;;;;;5.37;3.77;;;13.40;47.60;;;;;;5099612;28;21004;-84
2021/04/14 13:25:11;;;;;;;6.77;3.10;;;13.60;47.80;;;;;;5099970;28;21185;-84
2021/04/14 13:27:49;;;;;;;3.00;2.80;;;13.80;47.00;;;;;;5090738;28;20456;-84
2021/04/14 13:30:22;;;;;;;5.77;3.60;;;13.90;46.20;;;;;;5080767;28;20479;-84
2021/04/14 13:32:53;;;;;;;3.50;3.10;;;14.10;45.60;;;;;;5075847;28;20772;-84
2021/04/14 13:35:23;;;;;;;3.70;3.40;;;14.20;45.60;;;;;;5076211;28;20476;-85
2021/04/14 13:38:00;;;;;;;3.40;2.80;;;14.80;45.10;;;;;;5076493;28;20448;-85
2021/04/14 13:40:36;;;;;;;3.30;2.80;;;14.60;42.20;;;;;;5076414;28;20462;-85
2021/04/14 13:43:06;;;;;;;2.97;2.77;;;14.40;40.80;;;;;;5077060;28;20439;-85
2021/04/14 13:45:41;;;;;;;3.23;3.03;;;14.30;40.10;;;;;;5075093;28;20976;-85
2021/04/14 13:48:14;;;;;;;3.50;3.30;;;14.10;40.60;;;;;;5085626;28;20451;-84
2021/04/14 13:50:47;;;;;;;3.30;2.77;;;14.00;40.10;;;;;;5086624;28;20475;-85
2021/04/14 13:53:15;;;;;;;2.97;2.73;;;13.80;39.90;;;;;;5078845;28;21018;-84
2021/04/14 13:55:45;;;;;;;4.57;2.70;;;13.80;40.30;;;;;;5091273;28;20534;-84
2021/04/14 13:58:18;;;;;;;3.53;3.23;;;14.10;40.40;;;;;;5096427;28;20474;-84
2021/04/14 14:00:48;;;;;;;4.20;3.30;;;14.20;40.00;;;;;;5092444;28;20428;-84
2021/04/14 14:03:15;;;;;;;3.60;3.00;;;14.40;40.50;;;;;;5103680;28;20439;-84
2021/04/14 14:05:41;;;;;;;5.10;3.53;;;14.60;40.50;;;;;;5113886;28;20465;-85
2021/04/14 14:08:30;;;;;;;;;;;;;;;;;;;;;
2021/04/14 14:11:00;;;;;;;3.93;3.50;;;14.80;42.10;;;;;;5093697;28;20502;-84
2021/04/14 14:13:30;;;;;;;3.80;3.37;;;14.80;41.70;;;;;;5093017;28;20455;-84
2021/04/14 14:16:03;;;;;;;4.27;3.60;;;15.00;42.00;;;;;;5091221;28;20480;-85
2021/04/14 14:18:30;;;;;;;6.13;3.87;;;14.90;42.00;;;;;;5105268;28;20443;-85
2021/04/14 14:20:57;;;;;;;5.73;3.50;;;14.70;43.30;;;;;;5100249;28;20451;-84
2021/04/14 14:23:25;;;;;;;8.07;4.17;;;14.50;43.80;;;;;;5098002;28;20446;-84
2021/04/14 14:25:53;;;;;;;5.10;3.30;;;14.00;44.40;;;;;;5111039;28;20520;-85
2021/04/14 14:28:21;;;;;;;4.10;3.67;;;13.50;46.80;;;;;;5107627;28;20450;-86
2021/04/14 14:30:51;;;;;;;3.77;3.40;;;12.70;49.00;;;;;;5115706;28;20516;-84
2021/04/14 14:33:18;;;;;;;3.50;3.20;;;12.40;50.80;;;;;;5102222;28;20993;-84
2021/04/14 14:35:45;;;;;;;4.60;3.40;;;11.80;51.30;;;;;;5101189;28;20458;-83
2021/04/14 14:38:20;;;;;;;4.90;4.03;;;11.50;51.00;;;;;;5092231;28;20496;-84
2021/04/14 14:40:51;;;;;;;5.07;3.20;;;11.10;52.40;;;;;;5075954;28;20441;-84
2021/04/14 14:43:23;;;;;;;5.80;3.40;;;10.70;53.60;;;;;;5075921;28;20500;-85
2021/04/14 14:45:57;;;;;;;5.13;3.80;;;10.50;53.70;;;;;;5088394;28;20740;-84
2021/04/14 14:48:28;;;;;;;5.87;3.70;;;10.50;53.70;;;;;;5091142;28;20443;-85
2021/04/14 14:51:01;;;;;;;9.03;4.40;;;10.40;54.20;;;;;;5083769;28;20581;-86
2021/04/14 14:53:28;;;;;;;5.07;4.67;;;10.50;54.80;;;;;;5092642;28;20440;-86
2021/04/14 14:56:03;;;;;;;4.53;4.10;;;10.40;55.30;;;;;;5080077;28;20471;-85
2021/04/14 14:58:38;;;;;;;4.77;4.37;;;9.80;57.70;;;;;;5075782;28;20475;-85